Midland, North Carolina
Current Conditions -  °F | °C
As of 10:53 PM on Saturday 25 Oct 2014 (Local Time) from KEQY Reporting Station
Clear Clear  
Wind Chill: 55°   Ceiling: Unl
Heat Index: 55°   Visibility: 10mi
Dew Point: 44°   Wind: 7mph
Humidity: 67%   Direction: 240°WSW
Pressure: 29.93"   Gusts: NA
Location:  35.23°N, 80.5°W
Report Text: KEQY 260253Z AUTO 24006KT 10SM CLR 13/07 A2993 RMK AO2 SLP143 T01280067 58004
Loading
Personal Weather Stations






























Interactive Weather Map
Tropical Storm Tracking
New forecast layout! Learn more

10-Day Weather Forecast

Advertisements
Track Severe Weather on mobile